Time;durP1;ratioP1;P1;durP2;ratioP2;P2;SDS_P1;SDS_P2;PMS_P1;PMS_P2;Temp;Humidity;BMP_temperature;BMP_pressure;BME280_temperature;BME280_humidity;BME280_pressure;Samples;Min_cycle;Max_cycle;Signal;HPM_P1;HPM_P2
2023/03/01 00:00:52;;;;;;;;;;;12.50;50.40;;;;;;5048776;28;19921;-86
2023/03/01 00:03:18;;;;;;;;;;;12.40;50.30;;;;;;5048773;28;19916;-86
2023/03/01 00:05:50;;;;;;;;;;;12.40;50.40;;;;;;5049068;28;20156;-86
2023/03/01 00:08:15;;;;;;;;;;;12.40;50.40;;;;;;5049218;28;19917;-86
2023/03/01 00:10:40;;;;;;;;;;;12.40;50.50;;;;;;5049366;28;19909;-86
2023/03/01 00:13:06;;;;;;;;;;;12.30;50.50;;;;;;5048580;28;19972;-86
2023/03/01 00:15:32;;;;;;;;;;;12.30;50.60;;;;;;5048734;28;19936;-86
2023/03/01 00:18:00;;;;;;;;;;;12.30;50.70;;;;;;5048707;28;19909;-86
2023/03/01 00:20:29;;;;;;;;;;;12.20;50.70;;;;;;5047931;28;19913;-86
2023/03/01 00:22:58;;;;;;;;;;;12.20;50.80;;;;;;5031363;28;20008;-86
2023/03/01 00:25:23;;;;;;;;;;;12.20;50.80;;;;;;5032622;28;19916;-86
2023/03/01 00:27:52;;;;;;;;;;;12.20;50.90;;;;;;5049095;28;19910;-86
2023/03/01 00:30:20;;;;;;;;;;;12.10;50.90;;;;;;5032802;28;19920;-86
2023/03/01 00:32:48;;;;;;;;;;;12.10;51.00;;;;;;5047842;28;19929;-86
2023/03/01 00:35:14;;;;;;;;;;;12.10;51.00;;;;;;5048143;28;19909;-86
2023/03/01 00:37:43;;;;;;;;;;;12.10;51.00;;;;;;5049881;28;19919;-86
2023/03/01 00:40:10;;;;;;;;;;;12.20;51.00;;;;;;5033142;28;19920;-86
2023/03/01 00:42:35;;;;;;;;;;;12.20;51.00;;;;;;5052578;28;20192;-86
2023/03/01 00:45:04;;;;;;;;;;;12.20;51.00;;;;;;5054116;28;20305;-86
2023/03/01 00:47:29;;;;;;;;;;;12.20;50.90;;;;;;5054684;28;19919;-87
2023/03/01 00:49:55;;;;;;;;;;;12.20;50.90;;;;;;5054149;28;20000;-86
2023/03/01 00:52:24;;;;;;;;;;;12.20;50.90;;;;;;5054338;28;19918;-86
2023/03/01 00:54:51;;;;;;;;;;;12.20;51.00;;;;;;5054205;28;19916;-87
2023/03/01 00:57:17;;;;;;;;;;;12.20;51.00;;;;;;5054980;28;19916;-87
2023/03/01 00:59:43;;;;;;;;;;;12.20;51.00;;;;;;5054332;28;19913;-87
2023/03/01 01:02:11;;;;;;;;;;;12.20;51.00;;;;;;5036959;28;19924;-87
2023/03/01 01:04:40;;;;;;;;;;;12.20;51.10;;;;;;5054267;28;19909;-86
2023/03/01 01:07:09;;;;;;;;;;;12.10;51.10;;;;;;5053602;28;19996;-87
2023/03/01 01:09:35;;;;;;;;;;;12.10;51.20;;;;;;5053996;28;20184;-87
2023/03/01 01:12:01;;;;;;;;;;;12.10;51.10;;;;;;5052786;28;20215;-86
2023/03/01 01:14:26;;;;;;;;;;;12.20;51.20;;;;;;5037698;28;20294;-86
2023/03/01 01:16:52;;;;;;;;;;;12.20;51.10;;;;;;5054241;28;19909;-87
2023/03/01 01:19:18;;;;;;;;;;;12.20;51.10;;;;;;5052930;28;20267;-86
2023/03/01 01:21:43;;;;;;;;;;;12.20;51.00;;;;;;5054048;28;20008;-86
2023/03/01 01:24:36;;;;;;;;;;;12.20;51.10;;;;;;5054112;28;20255;-86
2023/03/01 01:27:02;;;;;;;;;;;12.20;51.00;;;;;;5054469;28;19924;-87
2023/03/01 01:29:30;;;;;;;;;;;12.20;51.00;;;;;;5054021;28;19909;-86
2023/03/01 01:31:56;;;;;;;;;;;12.20;51.00;;;;;;5053339;28;19920;-86
2023/03/01 01:34:25;;;;;;;;;;;12.20;51.00;;;;;;5053260;28;19913;-86
2023/03/01 01:39:26;;;;;;;;;;;12.20;51.20;;;;;;5152919;22;19932;-88
2023/03/01 01:41:51;;;;;;;;;;;12.10;51.20;;;;;;5039036;28;20185;-88
2023/03/01 01:44:23;;;;;;;;;;;12.10;51.20;;;;;;5053998;28;19909;-88
2023/03/01 01:47:05;;;;;;;;;;;12.20;51.20;;;;;;5038304;28;19928;-88
2023/03/01 01:49:34;;;;;;;;;;;12.20;51.10;;;;;;5039199;28;19909;-88
2023/03/01 01:52:20;;;;;;;;;;;12.20;51.10;;;;;;5038373;28;19909;-88
2023/03/01 01:54:56;;;;;;;;;;;12.20;51.10;;;;;;5055959;28;19909;-88
2023/03/01 01:57:23;;;;;;;;;;;12.20;51.00;;;;;;5040553;28;19916;-88
2023/03/01 01:59:51;;;;;;;;;;;12.20;51.00;;;;;;5040325;28;19970;-88
2023/03/01 02:02:17;;;;;;;;;;;12.20;51.40;;;;;;5040513;28;19913;-88
2023/03/01 02:04:47;;;;;;;;;;;12.20;51.00;;;;;;5039855;28;20002;-88
2023/03/01 02:07:18;;;;;;;;;;;12.20;51.00;;;;;;5040358;28;20181;-88
2023/03/01 02:09:45;;;;;;;;;;;12.20;51.00;;;;;;5040160;28;19917;-88
2023/03/01 02:12:11;;;;;;;;;;;12.20;51.00;;;;;;5057223;28;19939;-88
2023/03/01 02:14:36;;;;;;;;;;;12.20;51.10;;;;;;5037215;28;20046;-87
2023/03/01 02:17:02;;;;;;;;;;;12.10;51.00;;;;;;5039614;28;19919;-88
2023/03/01 02:19:41;;;;;;;;;;;12.20;51.10;;;;;;5041183;28;19909;-89
2023/03/01 02:22:18;;;;;;;;;;;12.20;51.10;;;;;;5034176;28;19939;-89
2023/03/01 02:25:03;;;;;;;;;;;12.20;51.10;;;;;;5034816;28;19909;-88
2023/03/01 02:28:01;;;;;;;;;;;12.20;51.00;;;;;;5050155;28;19908;-88
2023/03/01 02:30:27;;;;;;;;;;;12.20;51.00;;;;;;5003359;28;19951;-88
2023/03/01 02:32:54;;;;;;;;;;;12.20;50.90;;;;;;5036422;28;19948;-88
2023/03/01 02:35:23;;;;;;;;;;;12.30;50.90;;;;;;5037570;28;20346;-89
2023/03/01 02:37:51;;;;;;;;;;;12.30;50.90;;;;;;5035163;28;19913;-88
2023/03/01 02:40:18;;;;;;;;;;;12.30;51.00;;;;;;5035899;28;19927;-88
2023/03/01 02:42:53;;;;;;;;;;;12.20;51.00;;;;;;5037601;28;19913;-88
2023/03/01 02:45:19;;;;;;;;;;;12.20;51.00;;;;;;5036850;28;19999;-88
2023/03/01 02:47:51;;;;;;;;;;;12.20;51.00;;;;;;5037332;28;20019;-88
2023/03/01 02:50:27;;;;;;;;;;;12.20;51.10;;;;;;5054985;28;20196;-88
2023/03/01 02:52:57;;;;;;;;;;;12.20;51.10;;;;;;5055896;28;19909;-88
2023/03/01 02:55:23;;;;;;;;;;;12.20;51.10;;;;;;5039265;28;19909;-88
2023/03/01 02:57:52;;;;;;;;;;;12.20;51.00;;;;;;5056919;28;19909;-88
2023/03/01 03:00:22;;;;;;;;;;;12.20;51.00;;;;;;5038891;28;19919;-88
2023/03/01 03:02:56;;;;;;;;;;;12.20;51.00;;;;;;5035723;28;20233;-88
2023/03/01 03:05:27;;;;;;;;;;;12.20;50.90;;;;;;5052374;28;20279;-88
2023/03/01 03:07:52;;;;;;;;;;;12.20;50.80;;;;;;5035973;28;19908;-88
2023/03/01 03:10:20;;;;;;;;;;;12.20;50.80;;;;;;5036733;28;19940;-88
2023/03/01 03:12:50;;;;;;;;;;;12.20;50.80;;;;;;5035444;28;19940;-88
2023/03/01 03:15:15;;;;;;;;;;;12.20;50.80;;;;;;5034899;28;19920;-88
2023/03/01 03:17:42;;;;;;;;;;;12.20;50.80;;;;;;5037427;28;19908;-88
2023/03/01 03:20:11;;;;;;;;;;;12.20;50.80;;;;;;5037769;28;19987;-88
2023/03/01 03:22:39;;;;;;;;;;;12.20;50.90;;;;;;5044743;28;19920;-88
2023/03/01 03:25:05;;;;;;;;;;;12.20;50.90;;;;;;5044650;28;19925;-88
2023/03/01 03:27:33;;;;;;;;;;;12.20;50.90;;;;;;5046402;28;19920;-88
2023/03/01 03:30:02;;;;;;;;;;;12.20;50.90;;;;;;5038587;28;19921;-88
2023/03/01 03:32:28;;;;;;;;;;;12.20;50.80;;;;;;5038503;28;19960;-88
2023/03/01 03:34:53;;;;;;;;;;;12.20;50.80;;;;;;5038232;28;20199;-88
2023/03/01 03:40:15;;;;;;;;;;;12.20;50.80;;;;;;5055695;28;19970;-88
2023/03/01 03:42:41;;;;;;;;;;;12.20;51.00;;;;;;5038235;28;19920;-88
2023/03/01 03:45:07;;;;;;;;;;;12.10;50.90;;;;;;5037844;28;20247;-88
2023/03/01 03:47:32;;;;;;;;;;;12.00;51.00;;;;;;5054706;28;20365;-88
2023/03/01 03:49:58;;;;;;;;;;;11.90;51.00;;;;;;5038386;28;19920;-88
2023/03/01 03:52:23;;;;;;;;;;;11.90;51.20;;;;;;5037888;28;20211;-88
2023/03/01 03:54:49;;;;;;;;;;;11.80;51.30;;;;;;5037637;28;19908;-88
2023/03/01 03:57:15;;;;;;;;;;;11.70;51.30;;;;;;5037226;28;19909;-88
2023/03/01 03:59:40;;;;;;;;;;;11.70;51.50;;;;;;5054591;28;19963;-88
2023/03/01 04:02:09;;;;;;;;;;;11.60;51.60;;;;;;5036715;28;19924;-88
2023/03/01 04:04:37;;;;;;;;;;;11.50;51.70;;;;;;5036697;28;19920;-88
2023/03/01 04:07:06;;;;;;;;;;;11.50;51.80;;;;;;5038868;28;19909;-88
2023/03/01 04:09:32;;;;;;;;;;;11.60;51.70;;;;;;5037178;28;19909;-88
2023/03/01 04:11:57;;;;;;;;;;;12.30;50.80;;;;;;5038909;28;19919;-88
2023/03/01 04:14:23;;;;;;;;;;;12.70;50.00;;;;;;5037437;28;19916;-88
2023/03/01 04:16:51;;;;;;;;;;;13.10;49.60;;;;;;5039639;28;19916;-88
2023/03/01 04:19:17;;;;;;;;;;;13.30;49.30;;;;;;5041801;28;20201;-88
2023/03/01 04:21:42;;;;;;;;;;;13.50;49.00;;;;;;5041620;28;19913;-89
2023/03/01 04:24:12;;;;;;;;;;;13.60;48.70;;;;;;5040207;28;19909;-88
2023/03/01 04:26:38;;;;;;;;;;;13.80;48.40;;;;;;5040809;28;19909;-88
2023/03/01 04:29:04;;;;;;;;;;;14.00;48.20;;;;;;5040064;28;19913;-88
2023/03/01 04:31:29;;;;;;;;;;;14.20;48.00;;;;;;5041241;28;19920;-88
2023/03/01 04:33:55;;;;;;;;;;;14.30;47.80;;;;;;5041343;28;19909;-88
2023/03/01 04:36:23;;;;;;;;;;;14.40;47.60;;;;;;5040056;28;19919;-88
2023/03/01 04:38:48;;;;;;;;;;;14.50;47.50;;;;;;5040524;28;19924;-88
2023/03/01 04:41:15;;;;;;;;;;;14.50;47.50;;;;;;5040023;28;20231;-88
2023/03/01 04:43:40;;;;;;;;;;;14.40;47.40;;;;;;5040124;28;19909;-88
2023/03/01 04:46:09;;;;;;;;;;;14.40;47.50;;;;;;5040332;28;20049;-88
2023/03/01 04:48:41;;;;;;;;;;;14.30;47.60;;;;;;5038610;28;20305;-89
2023/03/01 04:51:07;;;;;;;;;;;14.20;47.70;;;;;;5039372;28;19999;-89
2023/03/01 04:53:36;;;;;;;;;;;14.00;47.80;;;;;;5039634;28;20271;-88
2023/03/01 04:56:02;;;;;;;;;;;13.90;47.90;;;;;;5055680;28;19909;-88
2023/03/01 04:58:28;;;;;;;;;;;13.80;48.10;;;;;;5037846;28;20190;-88
2023/03/01 05:00:57;;;;;;;;;;;13.70;48.20;;;;;;5036257;28;19994;-88
2023/03/01 05:03:22;;;;;;;;;;;13.50;48.40;;;;;;5054067;28;19931;-88
2023/03/01 05:05:54;;;;;;;;;;;13.30;48.60;;;;;;5036112;28;19935;-88
2023/03/01 05:08:20;;;;;;;;;;;13.20;48.80;;;;;;5055728;28;19920;-88
2023/03/01 05:10:48;;;;;;;;;;;13.00;49.10;;;;;;5038514;28;20054;-88
2023/03/01 05:13:20;;;;;;;;;;;12.90;49.30;;;;;;5036248;28;19924;-88
2023/03/01 05:15:49;;;;;;;;;;;12.70;49.50;;;;;;5039909;28;19944;-88
2023/03/01 05:18:15;;;;;;;;;;;12.60;49.70;;;;;;5039599;28;19913;-88
2023/03/01 05:20:41;;;;;;;;;;;12.40;49.90;;;;;;5038296;28;19936;-88
2023/03/01 05:23:06;;;;;;;;;;;12.30;50.10;;;;;;5038263;28;19909;-88
2023/03/01 05:25:33;;;;;;;;;;;12.20;50.30;;;;;;5040244;28;19959;-88
2023/03/01 05:28:03;;;;;;;;;;;12.10;50.40;;;;;;5038318;28;19920;-88
2023/03/01 05:30:28;;;;;;;;;;;12.00;50.50;;;;;;5039119;28;19987;-88
2023/03/01 05:33:03;;;;;;;;;;;11.90;50.60;;;;;;5037266;28;20215;-88
2023/03/01 05:35:29;;;;;;;;;;;11.90;50.80;;;;;;5055854;28;20003;-88
2023/03/01 05:37:57;;;;;;;;;;;11.80;50.90;;;;;;5037491;28;20050;-88
2023/03/01 05:40:26;;;;;;;;;;;11.90;50.80;;;;;;5038153;28;19990;-88
2023/03/01 05:42:56;;;;;;;;;;;12.00;50.70;;;;;;5038157;28;19908;-88
2023/03/01 05:45:22;;;;;;;;;;;12.30;50.30;;;;;;5037385;28;19909;-88
2023/03/01 05:47:48;;;;;;;;;;;12.70;49.80;;;;;;5053438;28;20156;-88
2023/03/01 05:50:35;;;;;;;;;;;13.00;49.30;;;;;;5052933;28;20348;-88
2023/03/01 05:53:08;;;;;;;;;;;13.50;48.80;;;;;;5053131;28;19917;-88
2023/03/01 05:55:34;;;;;;;;;;;13.80;48.10;;;;;;5050511;28;19920;-88
2023/03/01 05:58:00;;;;;;;;;;;14.30;47.60;;;;;;5033787;28;20003;-88
2023/03/01 06:00:42;;;;;;;;;;;14.50;47.10;;;;;;5051482;28;19978;-88
2023/03/01 06:03:11;;;;;;;;;;;14.70;46.90;;;;;;5033609;28;19913;-88
2023/03/01 06:05:37;;;;;;;;;;;14.70;46.80;;;;;;5034280;28;20254;-88
2023/03/01 06:08:02;;;;;;;;;;;14.60;46.80;;;;;;5033606;28;19971;-88
2023/03/01 06:10:28;;;;;;;;;;;14.50;46.90;;;;;;5033297;28;20253;-88
2023/03/01 06:12:55;;;;;;;;;;;14.40;47.00;;;;;;5050515;28;19919;-87
2023/03/01 06:15:27;;;;;;;;;;;14.20;47.20;;;;;;5031376;28;20285;-88
2023/03/01 06:17:54;;;;;;;;;;;14.00;47.40;;;;;;5034196;28;20016;-88
2023/03/01 06:20:21;;;;;;;;;;;13.80;47.60;;;;;;5051981;28;19917;-88
2023/03/01 06:22:50;;;;;;;;;;;13.60;47.90;;;;;;5033125;28;19963;-88
2023/03/01 06:25:23;;;;;;;;;;;13.50;48.50;;;;;;5031689;28;19920;-88
2023/03/01 06:27:52;;;;;;;;;;;13.30;48.40;;;;;;5031970;28;19909;-88
2023/03/01 06:30:18;;;;;;;;;;;13.10;48.60;;;;;;5030970;28;20206;-88
2023/03/01 06:32:44;;;;;;;;;;;12.90;48.90;;;;;;5031532;28;19909;-88
2023/03/01 06:35:11;;;;;;;;;;;12.70;49.10;;;;;;5030752;28;19913;-88
2023/03/01 06:37:36;;;;;;;;;;;12.50;49.30;;;;;;5029358;28;20282;-87
2023/03/01 06:40:08;;;;;;;;;;;12.40;49.60;;;;;;5026974;28;20070;-88
2023/03/01 06:42:38;;;;;;;;;;;12.30;49.80;;;;;;5027114;28;19908;-88
2023/03/01 06:45:04;;;;;;;;;;;12.20;50.00;;;;;;5046247;28;20056;-87
2023/03/01 06:47:33;;;;;;;;;;;12.10;50.10;;;;;;5028475;28;19909;-88
2023/03/01 06:49:59;;;;;;;;;;;12.10;50.10;;;;;;5027327;28;20313;-88
2023/03/01 06:52:25;;;;;;;;;;;12.10;50.10;;;;;;5029513;28;19948;-88
2023/03/01 06:54:50;;;;;;;;;;;12.20;50.20;;;;;;5028759;28;19959;-88
2023/03/01 06:57:19;;;;;;;;;;;12.30;50.20;;;;;;5027479;28;19909;-88
2023/03/01 06:59:48;;;;;;;;;;;12.70;49.80;;;;;;5027879;28;20098;-88
2023/03/01 07:02:16;;;;;;;;;;;13.40;49.00;;;;;;5028626;28;20094;-88
2023/03/01 07:04:42;;;;;;;;;;;14.30;48.00;;;;;;5029339;28;19915;-88
2023/03/01 07:07:08;;;;;;;;;;;15.10;47.00;;;;;;5027207;28;20166;-88
2023/03/01 07:09:33;;;;;;;;;;;15.80;46.10;;;;;;5028459;28;19920;-88
2023/03/01 07:11:59;;;;;;;;;;;16.60;45.30;;;;;;5028744;28;19920;-88
2023/03/01 07:14:25;;;;;;;;;;;17.10;44.50;;;;;;5045766;28;19927;-88
2023/03/01 07:16:54;;;;;;;;;;;17.60;44.00;;;;;;5043595;28;20132;-88
2023/03/01 07:19:20;;;;;;;;;;;17.90;43.50;;;;;;5028288;28;19909;-88
2023/03/01 07:21:46;;;;;;;;;;;18.10;43.20;;;;;;5026996;28;20100;-88
2023/03/01 07:24:15;;;;;;;;;;;18.30;42.90;;;;;;5025743;28;20180;-88
2023/03/01 07:26:43;;;;;;;;;;;18.50;42.70;;;;;;5027145;28;20261;-88
2023/03/01 07:29:09;;;;;;;;;;;18.60;42.50;;;;;;5027250;28;19917;-88
2023/03/01 07:31:38;;;;;;;;;;;18.70;42.30;;;;;;5028260;28;20173;-88
2023/03/01 07:34:06;;;;;;;;;;;18.90;42.20;;;;;;5027974;28;19915;-88
2023/03/01 07:36:35;;;;;;;;;;;19.00;42.20;;;;;;5028249;28;20156;-88
2023/03/01 07:39:02;;;;;;;;;;;19.10;42.00;;;;;;5027606;28;20048;-88
2023/03/01 07:41:30;;;;;;;;;;;19.20;41.90;;;;;;5026910;28;19978;-88
2023/03/01 07:43:59;;;;;;;;;;;19.30;41.80;;;;;;5043732;28;20361;-88
2023/03/01 07:46:24;;;;;;;;;;;19.40;41.60;;;;;;5028192;28;19951;-88
2023/03/01 07:48:50;;;;;;;;;;;19.50;41.50;;;;;;5028239;28;20019;-88
2023/03/01 07:51:18;;;;;;;;;;;19.60;41.40;;;;;;5026474;28;20074;-88
2023/03/01 07:53:48;;;;;;;;;;;19.70;41.30;;;;;;5028000;28;19919;-88
2023/03/01 07:56:14;;;;;;;;;;;19.80;41.20;;;;;;5026295;28;19908;-89
2023/03/01 07:58:41;;;;;;;;;;;19.90;41.10;;;;;;5025774;28;20011;-88
2023/03/01 08:01:07;;;;;;;;;;;20.00;41.00;;;;;;5027300;28;19928;-89
2023/03/01 08:03:36;;;;;;;;;;;20.10;40.90;;;;;;5027980;28;20277;-88
2023/03/01 08:06:06;;;;;;;;;;;20.20;40.80;;;;;;5028757;28;19971;-88
2023/03/01 08:08:32;;;;;;;;;;;20.30;40.70;;;;;;5028058;28;19908;-88
2023/03/01 08:10:59;;;;;;;;;;;20.40;40.60;;;;;;5025115;28;19916;-89
2023/03/01 08:13:27;;;;;;;;;;;20.50;40.40;;;;;;5026706;28;20007;-89
2023/03/01 08:15:53;;;;;;;;;;;20.70;40.30;;;;;;5026700;28;20275;-89
2023/03/01 08:18:19;;;;;;;;;;;20.90;40.10;;;;;;5027581;28;20361;-89
2023/03/01 08:20:45;;;;;;;;;;;21.30;39.70;;;;;;5043674;28;20251;-89
2023/03/01 08:23:11;;;;;;;;;;;21.70;39.40;;;;;;5027057;28;20503;-88
2023/03/01 08:25:37;;;;;;;;;;;22.00;39.00;;;;;;5023816;28;19931;-89
2023/03/01 08:28:05;;;;;;;;;;;22.20;38.70;;;;;;5044376;28;20184;-89
2023/03/01 08:30:34;;;;;;;;;;;22.40;38.50;;;;;;5028983;28;20213;-89
2023/03/01 08:33:00;;;;;;;;;;;22.60;38.30;;;;;;5045180;28;20301;-89
2023/03/01 08:35:25;;;;;;;;;;;22.90;38.10;;;;;;5025311;28;19908;-89
2023/03/01 08:37:51;;;;;;;;;;;23.10;37.90;;;;;;5026064;28;20013;-89
2023/03/01 08:40:20;;;;;;;;;;;23.30;37.60;;;;;;5029783;28;20400;-89
2023/03/01 08:42:46;;;;;;;;;;;23.60;37.40;;;;;;5025918;28;20263;-89
2023/03/01 08:45:14;;;;;;;;;;;23.70;37.10;;;;;;5026838;28;19925;-89
2023/03/01 08:47:39;;;;;;;;;;;23.80;36.90;;;;;;5028022;28;20285;-89
2023/03/01 08:50:08;;;;;;;;;;;23.90;36.80;;;;;;5028338;28;20137;-89
2023/03/01 08:52:34;;;;;;;;;;;24.00;37.10;;;;;;5028968;28;19995;-88
2023/03/01 08:55:01;;;;;;;;;;;24.10;36.50;;;;;;5028458;28;20066;-88
2023/03/01 08:57:27;;;;;;;;;;;24.10;36.40;;;;;;5031319;28;20170;-88
2023/03/01 08:59:56;;;;;;;;;;;24.20;36.30;;;;;;5029478;28;19919;-88
2023/03/01 09:02:21;;;;;;;;;;;24.20;36.20;;;;;;5030440;28;20030;-88
2023/03/01 09:04:47;;;;;;;;;;;24.20;36.10;;;;;;5045658;28;20343;-88
2023/03/01 09:07:12;;;;;;;;;;;24.20;36.10;;;;;;5033732;28;20042;-88
2023/03/01 09:09:38;;;;;;;;;;;24.20;36.00;;;;;;5033082;28;19909;-88
2023/03/01 09:12:06;;;;;;;;;;;24.20;36.00;;;;;;5031871;28;19909;-88
2023/03/01 09:14:37;;;;;;;;;;;24.20;35.90;;;;;;5033267;28;19908;-88
2023/03/01 09:17:03;;;;;;;;;;;24.10;36.00;;;;;;5049934;28;19917;-88
2023/03/01 09:19:31;;;;;;;;;;;24.00;36.10;;;;;;5033144;28;20160;-88
2023/03/01 09:21:58;;;;;;;;;;;23.80;36.20;;;;;;5050743;28;19912;-88
2023/03/01 09:24:24;;;;;;;;;;;23.70;36.20;;;;;;5033060;28;19909;-87
2023/03/01 09:26:52;;;;;;;;;;;23.70;36.30;;;;;;5030845;28;19973;-88
2023/03/01 09:29:18;;;;;;;;;;;23.60;36.20;;;;;;5032769;28;19913;-88
2023/03/01 09:31:43;;;;;;;;;;;23.70;36.10;;;;;;5051891;28;19920;-87
2023/03/01 09:34:09;;;;;;;;;;;23.70;36.10;;;;;;5033734;28;19932;-88
2023/03/01 09:36:38;;;;;;;;;;;23.70;36.10;;;;;;5050230;28;19909;-88
2023/03/01 09:39:06;;;;;;;;;;;23.70;35.90;;;;;;5031554;28;19928;-87
2023/03/01 09:41:51;;;;;;;;;;;23.70;35.80;;;;;;5031486;28;20116;-87
2023/03/01 09:44:29;;;;;;;;;;;23.80;35.80;;;;;;5048842;28;19917;-87
2023/03/01 09:46:56;;;;;;;;;;;23.90;35.70;;;;;;5031506;28;19944;-87
2023/03/01 09:49:27;;;;;;;;;;;23.80;35.70;;;;;;5031680;28;19909;-87
2023/03/01 09:51:59;;;;;;;;;;;23.60;35.90;;;;;;5030116;28;19909;-87
2023/03/01 09:54:24;;;;;;;;;;;23.60;35.80;;;;;;5031337;28;19931;-87
2023/03/01 09:57:10;;;;;;;;;;;23.60;35.80;;;;;;5047397;28;20190;-87
2023/03/01 10:00:05;;;;;;;;;;;23.30;35.50;;;;;;4988475;28;19921;-87
2023/03/01 10:02:40;;;;;;;;;;;22.60;35.60;;;;;;5019304;28;20042;-87
2023/03/01 10:05:09;;;;;;;;;;;21.80;35.90;;;;;;5030143;28;20015;-87
2023/03/01 10:07:54;;;;;;;;;;;21.10;36.50;;;;;;5029456;28;20077;-88
2023/03/01 10:10:32;;;;;;;;;;;20.50;36.90;;;;;;5046350;28;20030;-87
2023/03/01 10:13:00;;;;;;;;;;;19.90;37.60;;;;;;5028447;28;19908;-87
2023/03/01 10:15:33;;;;;;;;;;;19.40;38.00;;;;;;5026035;28;20058;-87
2023/03/01 10:18:20;;;;;;;;;;;19.10;38.50;;;;;;5026001;28;19956;-87
2023/03/01 10:20:53;;;;;;;;;;;18.70;38.80;;;;;;5026533;28;19981;-87
2023/03/01 10:23:22;;;;;;;;;;;18.40;39.20;;;;;;5027362;28;19967;-87
2023/03/01 10:26:09;;;;;;;;;;;18.20;39.50;;;;;;5028895;28;20254;-87
2023/03/01 10:28:44;;;;;;;;;;;18.00;39.70;;;;;;5045452;28;19908;-87
2023/03/01 10:31:13;;;;;;;;;;;17.70;40.00;;;;;;5028896;28;20356;-87
2023/03/01 10:33:39;;;;;;;;;;;17.50;40.20;;;;;;5029331;28;19943;-87
2023/03/01 10:36:05;;;;;;;;;;;17.10;40.50;;;;;;5029702;28;19909;-87
2023/03/01 10:38:31;;;;;;;;;;;16.90;40.80;;;;;;5026681;28;20278;-87
2023/03/01 10:40:59;;;;;;;;;;;16.60;41.10;;;;;;5025387;28;20063;-87
2023/03/01 10:43:44;;;;;;;;;;;16.40;41.30;;;;;;5026773;28;20037;-87
2023/03/01 10:46:30;;;;;;;;;;;16.30;41.50;;;;;;5026858;28;19916;-87
2023/03/01 10:49:07;;;;;;;;;;;16.10;41.70;;;;;;5025865;28;20183;-87
2023/03/01 10:51:35;;;;;;;;;;;16.00;42.00;;;;;;5027435;28;20142;-87
2023/03/01 10:54:06;;;;;;;;;;;15.80;42.10;;;;;;5026469;28;19970;-87
2023/03/01 10:56:45;;;;;;;;;;;15.60;42.20;;;;;;5027407;28;19909;-87
2023/03/01 10:59:20;;;;;;;;;;;15.50;42.40;;;;;;5028526;28;19909;-88
2023/03/01 11:01:45;;;;;;;;;;;15.40;42.50;;;;;;5028893;28;20290;-88
2023/03/01 11:04:12;;;;;;;;;;;15.30;42.60;;;;;;5027984;28;19967;-87
2023/03/01 11:06:39;;;;;;;;;;;15.20;42.70;;;;;;5025405;28;19948;-87
2023/03/01 11:09:17;;;;;;;;;;;15.10;42.90;;;;;;5043475;28;20263;-87
2023/03/01 11:11:42;;;;;;;;;;;15.00;43.00;;;;;;5026327;28;20065;-87
2023/03/01 11:14:15;;;;;;;;;;;14.80;43.10;;;;;;5027552;28;20026;-87
2023/03/01 11:16:44;;;;;;;;;;;14.70;43.20;;;;;;5042701;28;20072;-87
2023/03/01 11:19:09;;;;;;;;;;;14.60;43.30;;;;;;5023531;28;20313;-87
2023/03/01 11:21:40;;;;;;;;;;;14.50;43.50;;;;;;5042358;28;20413;-87
2023/03/01 11:24:12;;;;;;;;;;;14.40;43.60;;;;;;5043588;28;19909;-87
2023/03/01 11:26:56;;;;;;;;;;;14.40;43.80;;;;;;5041350;28;20045;-88
2023/03/01 11:29:38;;;;;;;;;;;14.30;44.30;;;;;;5025531;28;19956;-88
2023/03/01 11:32:06;;;;;;;;;;;14.30;44.00;;;;;;5024130;28;20093;-87
2023/03/01 11:34:37;;;;;;;;;;;14.50;43.80;;;;;;5043686;28;19940;-87
2023/03/01 11:37:07;;;;;;;;;;;14.80;43.50;;;;;;5026076;28;20294;-87
2023/03/01 11:39:37;;;;;;;;;;;15.40;43.00;;;;;;5027559;28;20157;-86
2023/03/01 11:42:21;;;;;;;;;;;16.00;42.50;;;;;;5026987;28;20270;-87
2023/03/01 11:44:52;;;;;;;;;;;16.50;41.80;;;;;;5026562;28;19912;-87
2023/03/01 11:47:27;;;;;;;;;;;16.70;41.40;;;;;;5045155;28;20367;-87
2023/03/01 11:50:07;;;;;;;;;;;17.00;41.20;;;;;;5046034;28;19924;-87
2023/03/01 11:52:36;;;;;;;;;;;17.00;41.10;;;;;;5044425;28;20019;-87
2023/03/01 11:55:14;;;;;;;;;;;17.00;41.10;;;;;;5045901;28;19920;-87
2023/03/01 11:58:21;;;;;;;;;;;17.00;41.10;;;;;;5043712;28;20317;-87
2023/03/01 12:00:57;;;;;;;;;;;16.90;41.20;;;;;;4925905;29;20017;-87
2023/03/01 12:03:50;;;;;;;;;;;16.70;41.40;;;;;;4926430;29;19911;-87
2023/03/01 12:06:42;;;;;;;;;;;16.50;41.50;;;;;;4998680;28;19939;-87
2023/03/01 12:09:24;;;;;;;;;;;16.40;41.70;;;;;;4923074;29;19911;-87
2023/03/01 12:12:02;;;;;;;;;;;16.20;42.00;;;;;;5019666;28;19967;-87
2023/03/01 12:14:30;;;;;;;;;;;16.00;42.20;;;;;;5040572;28;20023;-87
2023/03/01 12:17:25;;;;;;;;;;;15.80;42.40;;;;;;5038611;28;19909;-88
2023/03/01 12:19:58;;;;;;;;;;;15.60;42.60;;;;;;5002481;28;20156;-87
2023/03/01 12:22:27;;;;;;;;;;;15.40;42.80;;;;;;5037707;28;19913;-87
2023/03/01 12:25:12;;;;;;;;;;;15.20;43.10;;;;;;5041655;28;20117;-87
2023/03/01 12:27:45;;;;;;;;;;;15.10;43.20;;;;;;5042948;28;19939;-87
2023/03/01 12:30:17;;;;;;;;;;;15.00;43.50;;;;;;5041775;28;19912;-87
2023/03/01 12:32:42;;;;;;;;;;;14.90;43.70;;;;;;5032547;28;19919;-87
2023/03/01 12:35:12;;;;;;;;;;;14.80;44.00;;;;;;5033577;28;19913;-89
2023/03/01 12:37:43;;;;;;;;;;;14.60;43.60;;;;;;5045093;28;20026;-88
2023/03/01 12:40:22;;;;;;;;;;;14.50;44.30;;;;;;5045254;28;20257;-87
2023/03/01 12:43:03;;;;;;;;;;;14.40;44.40;;;;;;5028225;28;19966;-87
2023/03/01 12:45:28;;;;;;;;;;;14.30;44.90;;;;;;5030120;28;19909;-88
2023/03/01 12:48:03;;;;;;;;;;;14.20;44.70;;;;;;5029821;28;20209;-87
2023/03/01 12:50:43;;;;;;;;;;;14.10;44.70;;;;;;5045513;28;20003;-88
2023/03/01 12:53:18;;;;;;;;;;;14.00;44.80;;;;;;5029460;28;19958;-88
2023/03/01 12:55:44;;;;;;;;;;;13.90;45.00;;;;;;5043808;28;19908;-87
2023/03/01 12:58:20;;;;;;;;;;;13.80;45.00;;;;;;5027911;28;20150;-87
2023/03/01 13:01:05;;;;;;;;;;;13.70;45.10;;;;;;5046924;28;19921;-87
2023/03/01 13:03:42;;;;;;;;;;;13.60;45.10;;;;;;5044604;28;19908;-87
2023/03/01 13:06:14;;;;;;;;;;;13.50;45.20;;;;;;5043006;28;20079;-88
2023/03/01 13:08:52;;;;;;;;;;;13.40;45.20;;;;;;5044658;28;20187;-87
2023/03/01 13:11:20;;;;;;;;;;;13.40;45.40;;;;;;5043448;28;20073;-87
2023/03/01 13:13:48;;;;;;;;;;;13.50;45.40;;;;;;5042178;28;20666;-87
2023/03/01 13:16:22;;;;;;;;;;;13.50;45.90;;;;;;5023757;28;19913;-88
2023/03/01 13:18:47;;;;;;;;;;;13.80;46.90;;;;;;5040948;28;20313;-87
2023/03/01 13:21:28;;;;;;;;;;;14.00;48.00;;;;;;5026252;28;19920;-87
2023/03/01 13:23:57;;;;;;;;;;;14.20;48.20;;;;;;5039295;28;20062;-87
2023/03/01 13:26:23;;;;;;;;;;;14.60;48.30;;;;;;5036571;28;20175;-87
2023/03/01 13:28:56;;;;;;;;;;;14.90;48.30;;;;;;5039376;28;20059;-87
2023/03/01 13:31:28;;;;;;;;;;;15.20;48.20;;;;;;5039666;28;19920;-87
2023/03/01 13:33:54;;;;;;;;;;;15.40;48.30;;;;;;5039609;28;19909;-88
2023/03/01 13:36:29;;;;;;;;;;;15.40;48.10;;;;;;5043703;28;19921;-87
2023/03/01 13:38:59;;;;;;;;;;;15.30;48.00;;;;;;5043739;28;20171;-87
2023/03/01 13:41:39;;;;;;;;;;;15.10;47.80;;;;;;5044366;28;20169;-87
2023/03/01 13:44:17;;;;;;;;;;;14.90;47.70;;;;;;5043799;28;19908;-87
2023/03/01 13:46:44;;;;;;;;;;;14.80;47.60;;;;;;5045036;28;19908;-87
2023/03/01 13:49:11;;;;;;;;;;;14.60;47.50;;;;;;5043832;28;19909;-87
2023/03/01 13:51:37;;;;;;;;;;;14.40;47.30;;;;;;5044160;28;19912;-87
2023/03/01 13:54:03;;;;;;;;;;;14.30;47.30;;;;;;5025048;28;20287;-88
2023/03/01 13:56:35;;;;;;;;;;;14.10;47.20;;;;;;5045356;28;19952;-88
2023/03/01 13:59:09;;;;;;;;;;;14.10;47.30;;;;;;5049019;28;20149;-87
2023/03/01 14:01:35;;;;;;;;;;;14.00;47.30;;;;;;5045995;28;19913;-88
2023/03/01 14:04:02;;;;;;;;;;;14.00;48.10;;;;;;5045173;28;19935;-88
2023/03/01 14:06:32;;;;;;;;;;;13.90;48.50;;;;;;5057694;28;20099;-87
2023/03/01 14:09:03;;;;;;;;;;;13.80;48.30;;;;;;5047596;28;19916;-87
2023/03/01 14:11:38;;;;;;;;;;;13.80;48.10;;;;;;5047237;28;19908;-87
2023/03/01 14:14:19;;;;;;;;;;;13.70;48.20;;;;;;5043797;28;19910;-88
2023/03/01 14:16:57;;;;;;;;;;;13.60;48.10;;;;;;5042749;28;20277;-87
2023/03/01 14:19:30;;;;;;;;;;;13.50;48.00;;;;;;5043184;28;19912;-88
2023/03/01 14:22:04;;;;;;;;;;;13.40;48.00;;;;;;5043836;28;20244;-87
2023/03/01 14:24:33;;;;;;;;;;;13.30;48.00;;;;;;5042937;28;20501;-87
2023/03/01 14:27:01;;;;;;;;;;;13.20;47.90;;;;;;5041543;28;20061;-88
2023/03/01 14:29:37;;;;;;;;;;;13.20;48.10;;;;;;5040896;28;19917;-88
2023/03/01 14:32:18;;;;;;;;;;;13.10;48.30;;;;;;5044406;28;19987;-87
2023/03/01 14:34:45;;;;;;;;;;;13.10;48.60;;;;;;5032687;28;20207;-87
2023/03/01 14:37:31;;;;;;;;;;;13.00;48.50;;;;;;5025278;28;19909;-88